Terminal Aerodrome Forecast
Issued by NWS

Home | Current Version | Previous Version | Text Only | Print | Product List | Glossary On
Versions: 1 2 3 4 5 6 7 8 9 10 11 12 13 14 15
000
FTUS43 KDVN 241400 AAB
TAFBRL
TAF AMD
KBRL 241406Z 2414/2512 18006KT P6SM BKN005
     FM241500 17007KT P6SM FEW005
     FM241600 18010KT P6SM SCT250=

USA.gov is the U.S. government's official web portal to all federal, state and local government web resources and services.